createdAt,value
2022-11-24T00:01:45.169Z,2.38
2022-11-24T00:03:53.292Z,1.30
2022-11-24T00:05:54.881Z,2.33
2022-11-24T00:07:56.502Z,1.73
2022-11-24T00:09:58.178Z,1.25
2022-11-24T00:12:01.253Z,2.55
2022-11-24T00:14:04.043Z,2.88
2022-11-24T00:16:14.715Z,1.65
2022-11-24T00:18:16.326Z,1.88
2022-11-24T00:20:17.936Z,2.17
2022-11-24T00:22:19.587Z,1.45
2022-11-24T00:24:21.165Z,1.20
2022-11-24T00:26:28.322Z,1.58
2022-11-24T00:28:30.079Z,1.33
2022-11-24T00:30:33.514Z,2.22
2022-11-24T00:32:35.197Z,1.35
2022-11-24T00:34:36.946Z,1.27
2022-11-24T00:36:39.037Z,1.70
2022-11-24T00:38:40.653Z,1.95
2022-11-24T00:40:42.980Z,1.85
2022-11-24T00:42:44.654Z,2.10
2022-11-24T00:44:46.287Z,1.70
2022-11-24T00:46:48.018Z,1.73
2022-11-24T00:48:49.983Z,1.48
2022-11-24T00:51:01.414Z,1.80
2022-11-24T00:53:03.138Z,1.67
2022-11-24T00:55:05.120Z,2.83
2022-11-24T00:57:07.140Z,1.92
2022-11-24T00:59:08.854Z,1.50
2022-11-24T01:01:18.867Z,1.60
2022-11-24T01:03:21.244Z,1.17
2022-11-24T01:05:22.864Z,0.73
2022-11-24T01:07:24.518Z,1.92
2022-11-24T01:09:26.855Z,1.63
2022-11-24T01:11:52.192Z,1.75
2022-11-24T01:13:57.257Z,1.42
2022-11-24T01:15:59.021Z,2.17
2022-11-24T01:18:00.721Z,3.10
2022-11-24T01:20:02.909Z,2.25
2022-11-24T01:22:04.838Z,2.35
2022-11-24T01:24:06.752Z,2.92
2022-11-24T01:26:11.151Z,2.70
2022-11-24T01:28:13.492Z,1.10
2022-11-24T01:30:15.098Z,1.42
2022-11-24T01:32:16.699Z,2.20
2022-11-24T01:34:18.363Z,1.45
2022-11-24T01:36:20.650Z,1.05
2022-11-24T01:38:22.292Z,1.73
2022-11-24T01:40:23.878Z,0.70
2022-11-24T01:42:25.675Z,1.35
2022-11-24T01:44:29.748Z,1.63
2022-11-24T01:46:43.510Z,1.33
2022-11-24T01:49:03.762Z,1.23
2022-11-24T01:51:10.770Z,1.48
2022-11-24T01:53:13.828Z,2.10
2022-11-24T01:55:22.636Z,1.15
2022-11-24T01:57:32.386Z,2.03
2022-11-24T01:59:34.010Z,1.45
2022-11-24T02:01:35.750Z,2.45
2022-11-24T02:03:40.031Z,1.00
2022-11-24T02:05:50.452Z,2.03
2022-11-24T02:07:55.664Z,1.73
2022-11-24T02:10:02.334Z,1.88
2022-11-24T02:12:04.603Z,1.10
2022-11-24T02:14:09.631Z,1.30
2022-11-24T02:16:12.462Z,2.03
2022-11-24T02:18:14.271Z,1.20
2022-11-24T02:20:17.113Z,0.70
2022-11-24T02:22:32.068Z,1.25
2022-11-24T02:24:45.277Z,1.85
2022-11-24T02:26:49.007Z,1.50
2022-11-24T02:28:50.803Z,0.85
2022-11-24T02:30:52.906Z,1.48
2022-11-24T02:32:54.956Z,1.90
2022-11-24T02:35:05.458Z,1.58
2022-11-24T02:37:07.165Z,0.70
2022-11-24T02:39:13.653Z,2.38
2022-11-24T02:41:19.880Z,1.40
2022-11-24T02:43:23.368Z,1.20
2022-11-24T02:45:27.261Z,1.38
2022-11-24T02:47:28.919Z,1.52
2022-11-24T02:49:30.699Z,1.63
2022-11-24T02:51:34.297Z,0.80
2022-11-24T02:53:35.924Z,1.00
2022-11-24T02:55:37.571Z,0.90
2022-11-24T02:57:39.214Z,1.13
2022-11-24T02:59:40.927Z,0.88
2022-11-24T03:01:42.773Z,1.13
2022-11-24T03:03:44.580Z,1.00
2022-11-24T03:05:46.244Z,0.77
2022-11-24T03:07:47.904Z,2.25
2022-11-24T03:09:49.565Z,0.90
2022-11-24T03:11:51.219Z,2.67
2022-11-24T03:13:52.845Z,1.88
2022-11-24T03:15:54.483Z,1.00
2022-11-24T03:17:58.841Z,1.05
2022-11-24T03:20:04.910Z,1.25
2022-11-24T03:22:06.890Z,1.20
2022-11-24T03:24:08.946Z,0.98
2022-11-24T03:26:16.558Z,0.95
2022-11-24T03:28:18.167Z,1.10
2022-11-24T03:30:19.795Z,1.20
2022-11-24T03:32:21.400Z,0.85
2022-11-24T03:34:22.982Z,1.13
2022-11-24T03:36:24.594Z,1.15
2022-11-24T03:38:26.678Z,0.75
2022-11-24T03:40:28.312Z,1.00
2022-11-24T03:42:29.899Z,2.53
2022-11-24T03:44:31.789Z,1.05
2022-11-24T03:46:33.665Z,0.80
2022-11-24T03:48:35.443Z,2.78
2022-11-24T03:50:37.065Z,1.42
2022-11-24T03:52:38.682Z,1.10
2022-11-24T03:54:40.323Z,0.77
2022-11-24T03:56:41.940Z,1.35
2022-11-24T03:58:43.581Z,2.13
2022-11-24T04:00:45.950Z,1.20
2022-11-24T04:02:48.218Z,1.98
2022-11-24T04:04:52.406Z,2.42
2022-11-24T04:06:54.051Z,1.35
2022-11-24T04:08:56.384Z,0.73
2022-11-24T04:10:57.967Z,1.90
2022-11-24T04:12:59.576Z,1.80
2022-11-24T04:15:01.167Z,1.48
2022-11-24T04:17:04.225Z,0.60
2022-11-24T04:19:06.412Z,1.00
2022-11-24T04:21:08.002Z,3.97
2022-11-24T04:23:10.643Z,1.10
2022-11-24T04:25:12.675Z,1.13
2022-11-24T04:27:15.915Z,1.48
2022-11-24T04:29:17.510Z,1.35
2022-11-24T04:31:19.278Z,1.40
2022-11-24T04:33:20.927Z,0.80
2022-11-24T04:35:22.819Z,0.55
2022-11-24T04:37:24.431Z,1.67
2022-11-24T04:39:28.851Z,1.38
2022-11-24T04:41:30.627Z,0.68
2022-11-24T04:43:37.745Z,0.88
2022-11-24T04:45:41.943Z,0.70
2022-11-24T04:47:43.687Z,1.13
2022-11-24T04:49:47.270Z,0.60
2022-11-24T04:51:48.890Z,2.28
2022-11-24T04:53:50.495Z,0.70
2022-11-24T04:55:52.112Z,0.98
2022-11-24T04:57:53.822Z,0.80
2022-11-24T04:59:55.568Z,2.47
2022-11-24T05:01:57.309Z,1.10
2022-11-24T05:03:59.046Z,1.23
2022-11-24T05:06:00.789Z,1.15
2022-11-24T05:08:02.501Z,1.80
2022-11-24T05:10:24.329Z,4.03
2022-11-24T05:12:30.972Z,2.88
2022-11-24T05:14:32.851Z,1.60
2022-11-24T05:16:34.728Z,1.58
2022-11-24T05:18:37.762Z,4.13
2022-11-24T05:20:39.618Z,1.92
2022-11-24T05:22:41.236Z,2.70
2022-11-24T05:24:42.859Z,2.78
2022-11-24T05:26:44.506Z,2.25
2022-11-24T05:28:46.124Z,2.72
2022-11-24T05:30:47.774Z,3.08
2022-11-24T05:32:49.406Z,4.20
2022-11-24T05:34:51.805Z,1.00
2022-11-24T05:36:53.427Z,2.67
2022-11-24T05:38:55.360Z,2.08
2022-11-24T05:41:04.744Z,2.20
2022-11-24T05:43:16.986Z,2.78
2022-11-24T05:45:21.469Z,1.27
2022-11-24T05:47:23.492Z,2.55
2022-11-24T05:49:25.127Z,1.70
2022-11-24T05:51:27.594Z,17.35
2022-11-24T05:53:29.254Z,10.75
2022-11-24T05:55:31.202Z,3.53
2022-11-24T05:57:33.146Z,5.35
2022-11-24T05:59:35.066Z,8.25
2022-11-24T06:01:37.007Z,13.50
2022-11-24T06:03:39.100Z,6.05
2022-11-24T06:05:45.322Z,10.02
2022-11-24T06:07:47.048Z,7.65
2022-11-24T06:09:48.820Z,7.78
2022-11-24T06:11:50.493Z,13.80
2022-11-24T06:13:52.159Z,6.30
2022-11-24T06:15:54.243Z,7.85
2022-11-24T06:18:02.556Z,7.60
2022-11-24T06:20:05.834Z,2.42
2022-11-24T06:22:07.438Z,11.07
2022-11-24T06:24:09.159Z,4.78
2022-11-24T06:26:10.894Z,2.70
2022-11-24T06:28:12.553Z,5.50
2022-11-24T06:30:14.871Z,3.70
2022-11-24T06:32:16.941Z,8.30
2022-11-24T06:34:18.709Z,4.13
2022-11-24T06:36:20.409Z,1.85
2022-11-24T06:38:24.408Z,3.08
2022-11-24T06:40:26.206Z,9.50
2022-11-24T06:42:27.839Z,7.40
2022-11-24T06:44:29.526Z,9.07
2022-11-24T06:46:31.454Z,4.53
2022-11-24T06:48:33.447Z,6.35
2022-11-24T06:50:35.606Z,9.32
2022-11-24T06:52:37.222Z,7.72
2022-11-24T06:54:38.862Z,9.75
2022-11-24T06:56:40.493Z,4.38
2022-11-24T06:58:47.297Z,8.85
2022-11-24T07:00:48.950Z,3.88
2022-11-24T07:02:50.582Z,5.35
2022-11-24T07:04:52.232Z,9.18
2022-11-24T07:06:53.902Z,9.80
2022-11-24T07:08:55.570Z,24.52
2022-11-24T07:10:57.200Z,7.95
2022-11-24T07:12:58.865Z,12.65
2022-11-24T07:15:00.626Z,10.57
2022-11-24T07:17:02.623Z,6.22
2022-11-24T07:19:04.374Z,8.93
2022-11-24T07:21:06.538Z,9.93
2022-11-24T07:23:09.221Z,13.55
2022-11-24T07:25:10.870Z,7.47
2022-11-24T07:27:12.528Z,5.53
2022-11-24T07:29:14.200Z,8.80
2022-11-24T07:31:21.611Z,5.57
2022-11-24T07:33:25.974Z,9.95
2022-11-24T07:35:28.117Z,7.88
2022-11-24T07:37:31.847Z,8.27
2022-11-24T07:39:33.675Z,9.35
2022-11-24T07:41:35.263Z,4.78
2022-11-24T07:43:37.990Z,4.10
2022-11-24T07:45:39.681Z,7.60
2022-11-24T07:47:41.674Z,7.28
2022-11-24T07:49:43.362Z,5.68
2022-11-24T07:51:45.302Z,10.40
2022-11-24T07:53:47.003Z,5.20
2022-11-24T07:56:00.274Z,4.90
2022-11-24T07:58:02.498Z,4.43
2022-11-24T08:00:05.976Z,7.10
2022-11-24T08:02:09.122Z,5.47
2022-11-24T08:04:10.852Z,5.03
2022-11-24T08:06:32.565Z,4.53
2022-11-24T08:08:34.806Z,8.20
2022-11-24T08:10:36.413Z,5.45
2022-11-24T08:12:38.139Z,5.70
2022-11-24T08:14:39.739Z,4.63
2022-11-24T08:16:41.398Z,3.70
2022-11-24T08:18:43.756Z,4.72
2022-11-24T08:20:45.413Z,4.10
2022-11-24T08:22:47.062Z,5.18
2022-11-24T08:24:49.275Z,3.88
2022-11-24T08:26:50.882Z,9.73
2022-11-24T08:28:59.330Z,3.17
2022-11-24T08:31:19.293Z,7.03
2022-11-24T08:33:20.983Z,5.80
2022-11-24T08:35:22.584Z,5.28
2022-11-24T08:37:26.324Z,1.50
2022-11-24T08:39:28.004Z,3.83
2022-11-24T08:41:30.560Z,6.75
2022-11-24T08:43:32.346Z,3.53
2022-11-24T08:45:39.724Z,6.40
2022-11-24T08:47:42.894Z,2.53
2022-11-24T08:49:44.504Z,3.45
2022-11-24T08:51:48.487Z,2.75
2022-11-24T08:53:55.736Z,3.65
2022-11-24T08:56:01.175Z,3.03
2022-11-24T08:58:02.918Z,2.67
2022-11-24T09:00:06.240Z,5.80
2022-11-24T09:02:12.386Z,9.05
2022-11-24T09:04:14.247Z,6.07
2022-11-24T09:06:17.695Z,8.68
2022-11-24T09:08:19.336Z,7.72
2022-11-24T09:10:21.069Z,11.23
2022-11-24T09:12:22.734Z,6.53
2022-11-24T09:14:24.473Z,6.95
2022-11-24T09:16:28.781Z,12.55
2022-11-24T09:18:30.733Z,12.32
2022-11-24T09:20:32.430Z,6.97
2022-11-24T09:22:34.093Z,10.43
2022-11-24T09:24:35.754Z,10.50
2022-11-24T09:26:43.125Z,6.55
2022-11-24T09:28:48.439Z,5.63
2022-11-24T09:30:50.184Z,10.18
2022-11-24T09:32:51.876Z,6.18
2022-11-24T09:34:53.467Z,9.18
2022-11-24T09:36:55.603Z,7.65
2022-11-24T09:38:57.346Z,14.82
2022-11-24T09:41:17.862Z,9.02
2022-11-24T09:43:29.197Z,12.67
2022-11-24T09:48:15.731Z,8.90
2022-11-24T09:50:22.738Z,9.68
2022-11-24T09:52:53.557Z,10.48
2022-11-24T09:55:00.292Z,11.45
2022-11-24T09:57:05.766Z,5.18
2022-11-24T09:59:24.196Z,3.47
2022-11-24T10:01:36.787Z,10.52
2022-11-24T10:03:44.159Z,7.95
2022-11-24T10:05:49.931Z,9.80
2022-11-24T10:08:17.262Z,10.13
2022-11-24T10:10:28.405Z,3.97
2022-11-24T10:12:51.237Z,8.55
2022-11-24T10:14:52.939Z,8.27
2022-11-24T10:17:20.149Z,11.80
2022-11-24T10:19:37.670Z,3.55
2022-11-24T10:21:42.258Z,4.65
2022-11-24T10:23:49.958Z,8.63
2022-11-24T10:25:59.323Z,6.90
2022-11-24T10:28:09.891Z,3.72
2022-11-24T10:30:19.424Z,3.88
2022-11-24T10:32:30.394Z,6.15
2022-11-24T10:34:39.393Z,5.70
2022-11-24T10:36:57.690Z,4.65
2022-11-24T10:39:12.266Z,3.97
2022-11-24T10:41:20.820Z,2.95
2022-11-24T10:43:22.767Z,4.53
2022-11-24T10:45:27.651Z,2.60
2022-11-24T10:47:30.678Z,3.65
2022-11-24T10:49:33.531Z,1.52
2022-11-24T10:52:12.505Z,6.40
2022-11-24T10:54:20.180Z,4.95
2022-11-24T10:56:22.010Z,3.65
2022-11-24T10:58:38.733Z,2.58
2022-11-24T11:00:40.498Z,7.40
2022-11-24T11:02:42.306Z,4.30
2022-11-24T11:04:44.024Z,6.53
2022-11-24T11:06:45.801Z,6.30
2022-11-24T11:08:47.613Z,8.05
2022-11-24T11:10:52.373Z,4.68
2022-11-24T11:12:53.962Z,3.33
2022-11-24T11:14:55.727Z,5.25
2022-11-24T11:16:58.406Z,6.93
2022-11-24T11:19:15.661Z,9.38
2022-11-24T11:21:45.092Z,4.72
2022-11-24T11:23:51.745Z,5.45
2022-11-24T11:26:25.465Z,6.22
2022-11-24T11:28:29.199Z,2.28
2022-11-24T11:35:19.698Z,7.03
2022-11-24T11:37:24.136Z,1.63
2022-11-24T11:39:37.656Z,14.38
2022-11-24T11:41:45.233Z,5.78
2022-11-24T11:43:52.244Z,5.18
2022-11-24T11:46:05.035Z,2.50
2022-11-24T11:48:25.731Z,6.60
2022-11-24T11:50:59.184Z,9.07
2022-11-24T11:53:31.860Z,7.95
2022-11-24T11:55:46.610Z,5.60
2022-11-24T11:58:17.367Z,3.30
2022-11-24T12:00:21.947Z,5.50
2022-11-24T12:02:57.362Z,2.72
2022-11-24T12:05:51.612Z,5.43
2022-11-24T12:08:21.520Z,6.78
2022-11-24T12:10:35.955Z,5.05
2022-11-24T12:13:10.145Z,5.65
2022-11-24T12:15:25.804Z,6.30
2022-11-24T12:17:46.813Z,5.25
2022-11-24T12:20:32.390Z,7.65
2022-11-24T12:22:48.013Z,3.97
2022-11-24T12:25:14.042Z,6.35
2022-11-24T12:27:26.831Z,4.15
2022-11-24T12:29:58.569Z,2.75
2022-11-24T12:32:15.821Z,8.05
2022-11-24T12:34:43.541Z,3.17
2022-11-24T12:37:00.317Z,4.32
2022-11-24T12:39:25.434Z,2.88
2022-11-24T12:42:00.141Z,8.77
2022-11-24T12:44:03.063Z,4.72
2022-11-24T12:46:19.228Z,12.00
2022-11-24T12:48:41.287Z,13.77
2022-11-24T12:50:45.853Z,16.83
2022-11-24T12:53:02.459Z,9.80
2022-11-24T12:55:05.144Z,10.10
2022-11-24T12:57:31.799Z,11.63
2022-11-24T12:59:37.002Z,14.27
2022-11-24T13:01:50.026Z,10.20
2022-11-24T13:04:22.571Z,1.58
2022-11-24T13:06:49.103Z,6.22
2022-11-24T13:08:51.594Z,6.25
2022-11-24T13:10:56.185Z,9.40
2022-11-24T13:13:02.969Z,4.18
2022-11-24T13:15:43.561Z,4.90
2022-11-24T13:17:59.472Z,9.90
2022-11-24T13:20:21.337Z,10.20
2022-11-24T13:22:25.490Z,6.22
2022-11-24T13:24:30.735Z,6.63
2022-11-24T13:26:49.009Z,5.00
2022-11-24T13:29:13.376Z,5.90
2022-11-24T13:31:26.457Z,5.07
2022-11-24T13:33:31.471Z,6.50
2022-11-24T13:35:33.199Z,9.07
2022-11-24T13:37:36.491Z,5.72
2022-11-24T13:39:58.445Z,7.43
2022-11-24T13:42:00.427Z,12.45
2022-11-24T13:44:14.674Z,4.78
2022-11-24T13:46:57.551Z,5.15
2022-11-24T13:49:01.874Z,5.97
2022-11-24T13:51:03.768Z,7.88
2022-11-24T13:53:15.586Z,9.18
2022-11-24T13:55:19.334Z,8.55
2022-11-24T13:57:41.198Z,6.10
2022-11-24T13:59:43.207Z,17.92
2022-11-24T14:01:46.731Z,10.07
2022-11-24T14:07:07.437Z,11.90
2022-11-24T14:09:28.675Z,10.25
2022-11-24T14:11:30.326Z,7.63
2022-11-24T14:13:33.159Z,8.60
2022-11-24T14:15:36.449Z,8.32
2022-11-24T14:17:38.314Z,10.52
2022-11-24T14:19:44.051Z,6.22
2022-11-24T14:21:46.502Z,9.73
2022-11-24T14:23:51.580Z,5.70
2022-11-24T14:25:53.506Z,5.85
2022-11-24T14:27:55.226Z,8.10
2022-11-24T14:30:05.924Z,7.05
2022-11-24T14:32:16.753Z,4.30
2022-11-24T14:34:21.238Z,6.40
2022-11-24T14:36:22.898Z,2.17
2022-11-24T14:38:24.606Z,3.47
2022-11-24T14:40:50.077Z,5.32
2022-11-24T14:42:51.787Z,3.30
2022-11-24T14:44:58.483Z,5.53
2022-11-24T14:47:05.857Z,7.60
2022-11-24T14:49:07.831Z,2.65
2022-11-24T14:51:21.387Z,3.50
2022-11-24T14:53:26.265Z,3.50
2022-11-24T14:55:35.211Z,4.57
2022-11-24T14:57:37.898Z,8.48
2022-11-24T14:59:39.618Z,5.07
2022-11-24T15:01:41.575Z,5.75
2022-11-24T15:03:43.229Z,7.47
2022-11-24T15:05:57.063Z,3.20
2022-11-24T15:08:03.130Z,2.85
2022-11-24T15:10:17.304Z,4.93
2022-11-24T15:12:30.628Z,5.70
2022-11-24T15:14:38.769Z,4.68
2022-11-24T15:16:40.588Z,2.65
2022-11-24T15:18:55.850Z,4.35
2022-11-24T15:20:57.675Z,3.22
2022-11-24T15:23:23.334Z,4.60
2022-11-24T15:25:33.322Z,3.88
2022-11-24T15:27:34.976Z,7.80
2022-11-24T15:29:36.606Z,8.80
2022-11-24T15:31:46.313Z,20.90
2022-11-24T15:33:51.103Z,8.77
2022-11-24T15:35:52.923Z,9.40
2022-11-24T15:37:54.633Z,14.30
2022-11-24T15:39:56.237Z,11.35
2022-11-24T15:41:58.161Z,12.70
2022-11-24T15:44:00.187Z,23.17
2022-11-24T15:46:03.283Z,10.60
2022-11-24T15:48:05.171Z,7.45
2022-11-24T15:50:07.480Z,9.88
2022-11-24T15:52:09.086Z,8.90
2022-11-24T15:54:15.558Z,19.88
2022-11-24T15:56:28.430Z,37.83
2022-11-24T15:58:30.044Z,17.52
2022-11-24T16:00:32.670Z,20.75
2022-11-24T16:02:34.396Z,13.15
2022-11-24T16:04:36.296Z,10.68
2022-11-24T16:06:38.219Z,15.40
2022-11-24T16:08:40.018Z,15.80
2022-11-24T16:10:43.098Z,8.05
2022-11-24T16:12:44.707Z,11.13
2022-11-24T16:14:46.397Z,14.45
2022-11-24T16:16:48.060Z,5.60
2022-11-24T16:18:49.896Z,8.10
2022-11-24T16:20:51.550Z,6.43
2022-11-24T16:22:54.186Z,11.65
2022-11-24T16:24:55.815Z,3.33
2022-11-24T16:26:57.468Z,29.42
2022-11-24T16:28:59.113Z,29.73
2022-11-24T16:31:00.882Z,25.55
2022-11-24T16:33:08.249Z,13.73
2022-11-24T16:35:10.002Z,20.75
2022-11-24T16:37:11.587Z,24.80
2022-11-24T16:39:13.276Z,11.27
2022-11-24T16:41:15.918Z,20.42
2022-11-24T16:43:17.619Z,14.77
2022-11-24T16:45:19.231Z,23.33
2022-11-24T16:47:20.938Z,15.80
2022-11-24T16:49:22.583Z,8.80
2022-11-24T16:51:27.785Z,23.90
2022-11-24T16:53:33.551Z,29.02
2022-11-24T16:55:35.191Z,26.80
2022-11-24T16:57:37.042Z,23.05
2022-11-24T16:59:39.000Z,32.47
2022-11-24T17:01:40.768Z,34.80
2022-11-24T17:03:42.422Z,25.90
2022-11-24T17:05:44.020Z,32.55
2022-11-24T17:07:45.698Z,29.10
2022-11-24T17:09:48.254Z,26.33
2022-11-24T17:11:50.062Z,28.40
2022-11-24T17:13:52.291Z,27.98
2022-11-24T17:15:54.491Z,26.20
2022-11-24T17:18:22.791Z,30.50
2022-11-24T17:20:18.030Z,17.42
2022-11-24T17:22:19.651Z,27.20
2022-11-24T17:24:21.453Z,16.30
2022-11-24T17:26:23.867Z,20.38
2022-11-24T17:28:25.503Z,26.35
2022-11-24T17:30:27.116Z,33.05
2022-11-24T17:32:28.752Z,20.63
2022-11-24T17:34:30.359Z,24.92
2022-11-24T17:36:34.071Z,26.02
2022-11-24T17:38:36.801Z,26.92
2022-11-24T17:40:38.473Z,25.45
2022-11-24T17:42:40.099Z,33.95
2022-11-24T17:44:41.757Z,42.05
2022-11-24T17:46:43.378Z,28.33
2022-11-24T17:48:45.303Z,31.98
2022-11-24T17:50:46.932Z,23.27
2022-11-24T17:52:48.578Z,23.60
2022-11-24T17:54:50.226Z,26.20
2022-11-24T17:56:51.901Z,24.45
2022-11-24T17:59:00.917Z,22.77
2022-11-24T18:01:02.712Z,40.78
2022-11-24T18:03:05.394Z,25.13
2022-11-24T18:05:07.549Z,25.92
2022-11-24T18:07:09.233Z,19.48
2022-11-24T18:09:11.026Z,16.48
2022-11-24T18:11:15.529Z,13.35
2022-11-24T18:13:34.216Z,14.52
2022-11-24T18:15:38.851Z,16.38
2022-11-24T18:17:40.508Z,12.85
2022-11-24T18:19:42.144Z,20.45
2022-11-24T18:21:44.771Z,16.92
2022-11-24T18:23:47.243Z,14.15
2022-11-24T18:26:00.498Z,12.60
2022-11-24T18:28:02.135Z,22.70
2022-11-24T18:30:05.062Z,30.63
2022-11-24T18:32:06.858Z,34.38
2022-11-24T18:34:08.839Z,30.92
2022-11-24T18:36:17.273Z,26.27
2022-11-24T18:38:19.090Z,15.00
2022-11-24T18:40:20.750Z,11.73
2022-11-24T18:42:25.453Z,18.15
2022-11-24T18:44:27.093Z,14.43
2022-11-24T18:46:29.054Z,25.90
2022-11-24T18:48:30.726Z,18.50
2022-11-24T18:50:33.185Z,25.77
2022-11-24T18:52:34.880Z,15.98
2022-11-24T18:54:36.986Z,19.20
2022-11-24T18:56:38.902Z,17.05
2022-11-24T18:58:40.736Z,12.18
2022-11-24T19:00:42.368Z,10.90
2022-11-24T19:02:44.049Z,17.35
2022-11-24T19:04:45.743Z,14.95
2022-11-24T19:06:47.350Z,12.77
2022-11-24T19:08:52.084Z,10.80
2022-11-24T19:10:53.728Z,11.10
2022-11-24T19:12:55.988Z,24.65
2022-11-24T19:14:57.637Z,8.48
2022-11-24T19:17:02.100Z,13.43
2022-11-24T19:19:04.415Z,8.27
2022-11-24T19:21:06.343Z,8.90
2022-11-24T19:23:07.936Z,14.13
2022-11-24T19:25:09.716Z,8.35
2022-11-24T19:27:11.356Z,10.55
2022-11-24T19:29:13.006Z,7.30
2022-11-24T19:31:16.556Z,8.38
2022-11-24T19:33:18.833Z,9.77
2022-11-24T19:35:20.665Z,11.15
2022-11-24T19:37:23.485Z,11.55
2022-11-24T19:39:25.206Z,7.32
2022-11-24T19:41:29.892Z,8.75
2022-11-24T19:43:31.807Z,11.85
2022-11-24T19:45:33.554Z,9.57
2022-11-24T19:47:35.314Z,6.72
2022-11-24T19:49:36.925Z,10.02
2022-11-24T19:51:39.697Z,7.63
2022-11-24T19:53:43.322Z,10.07
2022-11-24T19:55:45.009Z,6.55
2022-11-24T19:57:46.791Z,6.90
2022-11-24T19:59:48.649Z,10.93
2022-11-24T20:01:50.417Z,7.88
2022-11-24T20:04:00.610Z,7.07
2022-11-24T20:06:02.373Z,7.82
2022-11-24T20:08:04.243Z,10.05
2022-11-24T20:10:08.019Z,7.75
2022-11-24T20:12:10.174Z,7.97
2022-11-24T20:14:14.352Z,8.60
2022-11-24T20:16:26.074Z,6.00
2022-11-24T20:18:30.036Z,5.60
2022-11-24T20:20:32.588Z,6.93
2022-11-24T20:22:34.247Z,7.68
2022-11-24T20:24:36.185Z,7.45
2022-11-24T20:26:41.825Z,9.32
2022-11-24T20:28:43.490Z,12.52
2022-11-24T20:30:45.090Z,7.35
2022-11-24T20:32:46.717Z,6.22
2022-11-24T20:34:49.222Z,9.55
2022-11-24T20:36:52.864Z,6.55
2022-11-24T20:38:55.185Z,5.80
2022-11-24T20:41:09.072Z,6.15
2022-11-24T20:43:11.105Z,3.67
2022-11-24T20:45:12.760Z,5.25
2022-11-24T20:47:14.438Z,5.88
2022-11-24T20:49:19.099Z,6.28
2022-11-24T20:51:23.082Z,7.47
2022-11-24T20:53:24.762Z,4.20
2022-11-24T20:55:26.437Z,11.73
2022-11-24T20:57:28.083Z,6.65
2022-11-24T20:59:29.739Z,7.13
2022-11-24T21:01:35.055Z,5.32
2022-11-24T21:03:42.877Z,4.80
2022-11-24T21:05:45.021Z,4.70
2022-11-24T21:07:46.712Z,4.78
2022-11-24T21:09:48.458Z,3.67
2022-11-24T21:11:50.361Z,5.20
2022-11-24T21:13:52.778Z,3.60
2022-11-24T21:15:55.285Z,4.13
2022-11-24T21:17:57.351Z,6.13
2022-11-24T21:20:01.126Z,5.78
2022-11-24T21:22:03.005Z,4.15
2022-11-24T21:24:13.617Z,4.07
2022-11-24T21:26:17.370Z,5.90
2022-11-24T21:28:19.197Z,15.18
2022-11-24T21:30:20.821Z,13.10
2022-11-24T21:32:22.977Z,18.35
2022-11-24T21:34:24.613Z,12.38
2022-11-24T21:36:26.645Z,17.00
2022-11-24T21:38:28.276Z,16.48
2022-11-24T21:40:32.926Z,24.85
2022-11-24T21:42:34.728Z,16.55
2022-11-24T21:44:36.897Z,17.48
2022-11-24T21:46:44.076Z,15.07
2022-11-24T21:48:47.572Z,14.80
2022-11-24T21:50:49.202Z,19.10
2022-11-24T21:52:50.925Z,14.18
2022-11-24T21:54:52.502Z,14.32
2022-11-24T21:56:54.373Z,15.15
2022-11-24T21:58:57.417Z,12.27
2022-11-24T22:01:08.897Z,15.77
2022-11-24T22:03:10.606Z,12.27
2022-11-24T22:05:12.254Z,22.77
2022-11-24T22:07:13.930Z,11.02
2022-11-24T22:09:18.177Z,12.07
2022-11-24T22:11:22.685Z,12.25
2022-11-24T22:13:24.277Z,14.20
2022-11-24T22:15:25.930Z,9.82
2022-11-24T22:17:30.976Z,11.98
2022-11-24T22:19:32.569Z,10.98
2022-11-24T22:21:34.305Z,9.77
2022-11-24T22:23:36.527Z,11.90
2022-11-24T22:25:38.165Z,9.65
2022-11-24T22:27:39.772Z,12.50
2022-11-24T22:29:41.411Z,11.00
2022-11-24T22:31:43.057Z,10.18
2022-11-24T22:33:45.294Z,9.98
2022-11-24T22:35:56.658Z,8.50
2022-11-24T22:37:58.288Z,9.32
2022-11-24T22:39:59.946Z,8.07
2022-11-24T22:42:01.534Z,7.18
2022-11-24T22:44:03.930Z,8.73
2022-11-24T22:46:13.817Z,10.30
2022-11-24T22:48:15.477Z,8.50
2022-11-24T22:50:17.170Z,9.05
2022-11-24T22:52:18.810Z,9.77
2022-11-24T22:54:20.542Z,8.68
2022-11-24T22:56:23.049Z,8.55
2022-11-24T22:58:24.691Z,9.70
2022-11-24T23:00:26.325Z,8.55
2022-11-24T23:02:28.577Z,8.57
2022-11-24T23:04:30.370Z,6.90
2022-11-24T23:06:32.941Z,8.07
2022-11-24T23:08:35.597Z,7.82
2022-11-24T23:10:37.196Z,7.75
2022-11-24T23:12:38.799Z,7.22
2022-11-24T23:14:40.442Z,11.93
2022-11-24T23:16:43.110Z,6.63
2022-11-24T23:18:50.993Z,10.15
2022-11-24T23:20:55.698Z,8.15
2022-11-24T23:22:57.359Z,5.97
2022-11-24T23:24:58.974Z,10.80
2022-11-24T23:27:00.572Z,6.38
2022-11-24T23:29:03.120Z,9.88
2022-11-24T23:31:10.009Z,7.53
2022-11-24T23:33:11.782Z,8.30
2022-11-24T23:35:14.127Z,5.90
2022-11-24T23:37:15.951Z,6.82
2022-11-24T23:39:17.553Z,7.60
2022-11-24T23:41:24.757Z,7.25
2022-11-24T23:43:26.746Z,6.32
2022-11-24T23:45:28.357Z,6.88
2022-11-24T23:47:29.950Z,7.65
2022-11-24T23:49:31.631Z,6.13
2022-11-24T23:51:33.766Z,5.57
2022-11-24T23:53:35.935Z,8.05
2022-11-24T23:55:37.673Z,5.72
2022-11-24T23:57:39.321Z,6.63
2022-11-24T23:59:41.147Z,7.97
